createdAt,value
2023-04-23T00:01:27.023Z,11.25
2023-04-23T00:03:58.965Z,12.70
2023-04-23T00:06:27.136Z,12.75
2023-04-23T00:08:55.612Z,14.70
2023-04-23T00:11:23.378Z,10.17
2023-04-23T00:13:51.349Z,9.75
2023-04-23T00:16:20.258Z,10.70
2023-04-23T00:18:48.281Z,9.50
2023-04-23T00:21:15.452Z,8.30
2023-04-23T00:23:42.908Z,8.57
2023-04-23T00:26:10.336Z,10.65
2023-04-23T00:28:37.750Z,9.20
2023-04-23T00:31:04.940Z,12.32
2023-04-23T00:33:32.427Z,9.98
2023-04-23T00:35:59.794Z,8.87
2023-04-23T00:38:27.343Z,10.88
2023-04-23T00:40:54.468Z,10.45
2023-04-23T00:43:21.921Z,11.20
2023-04-23T00:45:49.697Z,10.30
2023-04-23T00:48:17.611Z,11.20
2023-04-23T00:50:44.687Z,9.98
2023-04-23T00:53:12.261Z,14.30
2023-04-23T00:55:39.395Z,13.25
2023-04-23T00:58:07.174Z,11.45
2023-04-23T01:00:38.925Z,11.73
2023-04-23T01:03:06.644Z,11.50
2023-04-23T01:05:33.846Z,8.73
2023-04-23T01:08:01.281Z,9.02
2023-04-23T01:10:28.645Z,8.60
2023-04-23T01:12:56.196Z,7.27
2023-04-23T01:15:23.445Z,6.88
2023-04-23T01:17:51.315Z,6.97
2023-04-23T01:20:18.459Z,7.53
2023-04-23T01:22:49.306Z,8.00
2023-04-23T01:25:16.465Z,7.30
2023-04-23T01:27:44.088Z,7.40
2023-04-23T01:30:12.157Z,6.38
2023-04-23T01:32:40.625Z,9.35
2023-04-23T01:35:10.671Z,7.32
2023-04-23T01:37:39.885Z,6.27
2023-04-23T01:40:08.701Z,7.00
2023-04-23T01:42:36.537Z,9.82
2023-04-23T01:45:04.070Z,9.13
2023-04-23T01:47:32.097Z,8.68
2023-04-23T01:49:59.247Z,8.20
2023-04-23T01:52:26.805Z,7.13
2023-04-23T01:54:54.451Z,9.68
2023-04-23T01:57:24.474Z,8.70
2023-04-23T01:59:51.529Z,7.07
2023-04-23T02:02:19.767Z,9.67
2023-04-23T02:04:48.944Z,7.82
2023-04-23T02:07:16.601Z,8.38
2023-04-23T02:09:43.642Z,8.23
2023-04-23T02:12:11.028Z,8.48
2023-04-23T02:14:38.113Z,8.50
2023-04-23T02:17:05.552Z,8.40
2023-04-23T02:19:34.810Z,12.25
2023-04-23T02:22:02.149Z,12.70
2023-04-23T02:24:29.241Z,11.52
2023-04-23T02:26:58.216Z,9.37
2023-04-23T02:29:25.304Z,11.27
2023-04-23T02:31:52.872Z,12.52
2023-04-23T02:34:20.076Z,10.68
2023-04-23T02:36:47.465Z,8.95
2023-04-23T02:39:14.510Z,10.77
2023-04-23T02:41:41.878Z,8.02
2023-04-23T02:44:08.907Z,9.05
2023-04-23T02:46:37.636Z,8.57
2023-04-23T02:49:05.241Z,10.15
2023-04-23T02:51:33.103Z,8.40
2023-04-23T02:54:00.310Z,9.50
2023-04-23T02:56:27.634Z,8.02
2023-04-23T02:58:55.099Z,12.73
2023-04-23T03:01:22.576Z,11.90
2023-04-23T03:03:50.100Z,9.90
2023-04-23T03:06:18.174Z,7.35
2023-04-23T03:08:45.408Z,6.60
2023-04-23T03:11:12.991Z,8.10
2023-04-23T03:13:40.506Z,11.02
2023-04-23T03:16:09.041Z,8.47
2023-04-23T03:18:36.449Z,9.85
2023-04-23T03:21:04.009Z,7.75
2023-04-23T03:23:31.100Z,7.15
2023-04-23T03:25:58.449Z,7.55
2023-04-23T03:28:25.576Z,7.00
2023-04-23T03:30:53.043Z,6.88
2023-04-23T03:33:20.439Z,8.93
2023-04-23T03:35:47.833Z,8.85
2023-04-23T03:38:19.914Z,9.25
2023-04-23T03:40:47.598Z,10.73
2023-04-23T03:43:14.990Z,13.57
2023-04-23T03:46:01.240Z,16.40
2023-04-23T03:48:29.878Z,18.48
2023-04-23T03:50:58.253Z,13.25
2023-04-23T03:53:39.535Z,10.87
2023-04-23T03:56:27.415Z,7.80
2023-04-23T03:59:14.789Z,7.65
2023-04-23T04:01:44.106Z,7.25
2023-04-23T04:04:11.385Z,7.43
2023-04-23T04:06:39.040Z,5.80
2023-04-23T04:09:08.158Z,5.97
2023-04-23T04:11:36.125Z,7.72
2023-04-23T04:14:03.252Z,5.75
2023-04-23T04:16:30.792Z,7.00
2023-04-23T04:18:58.000Z,6.27
2023-04-23T04:21:26.213Z,6.07
2023-04-23T04:23:53.931Z,6.90
2023-04-23T04:26:21.356Z,6.97
2023-04-23T04:28:48.759Z,5.70
2023-04-23T04:31:16.360Z,10.10
2023-04-23T04:33:43.605Z,12.30
2023-04-23T04:36:10.996Z,12.13
2023-04-23T04:38:39.357Z,12.63
2023-04-23T04:41:07.975Z,18.60
2023-04-23T04:43:35.237Z,16.77
2023-04-23T04:46:04.153Z,9.68
2023-04-23T04:48:32.296Z,5.90
2023-04-23T04:50:59.616Z,5.55
2023-04-23T04:53:26.595Z,5.43
2023-04-23T04:55:53.980Z,5.50
2023-04-23T04:58:21.107Z,5.25
2023-04-23T05:00:52.390Z,5.47
2023-04-23T05:03:19.962Z,5.00
2023-04-23T05:05:48.884Z,4.32
2023-04-23T05:08:17.609Z,7.33
2023-04-23T05:10:45.201Z,8.90
2023-04-23T05:13:12.196Z,16.70
2023-04-23T05:15:39.576Z,9.80
2023-04-23T05:18:06.861Z,9.15
2023-04-23T05:20:34.326Z,11.80
2023-04-23T05:23:02.532Z,11.25
2023-04-23T05:25:31.184Z,10.43
2023-04-23T05:27:58.620Z,8.63
2023-04-23T05:30:25.992Z,8.68
2023-04-23T05:32:53.410Z,6.63
2023-04-23T05:35:20.937Z,8.30
2023-04-23T05:37:49.020Z,7.72
2023-04-23T05:40:16.455Z,7.28
2023-04-23T05:42:43.434Z,7.85
2023-04-23T05:45:11.397Z,6.93
2023-04-23T05:47:39.024Z,6.32
2023-04-23T05:50:07.702Z,7.20
2023-04-23T05:52:37.525Z,6.43
2023-04-23T05:55:06.051Z,15.73
2023-04-23T05:57:32.919Z,7.47
2023-04-23T06:00:00.199Z,13.25
2023-04-23T06:02:28.968Z,12.98
2023-04-23T06:04:56.824Z,8.02
2023-04-23T06:07:24.022Z,7.88
2023-04-23T06:09:51.594Z,5.37
2023-04-23T06:12:18.836Z,7.78
2023-04-23T06:14:46.312Z,6.57
2023-04-23T06:17:13.551Z,5.15
2023-04-23T06:19:41.738Z,5.00
2023-04-23T06:22:08.790Z,4.50
2023-04-23T06:24:36.399Z,5.45
2023-04-23T06:27:03.524Z,3.83
2023-04-23T06:29:33.767Z,3.70
2023-04-23T06:32:05.470Z,4.20
2023-04-23T06:34:33.235Z,4.73
2023-04-23T06:37:00.539Z,6.18
2023-04-23T06:39:27.929Z,5.90
2023-04-23T06:41:54.924Z,4.53
2023-04-23T06:44:42.774Z,4.07
2023-04-23T06:47:10.105Z,3.67
2023-04-23T06:49:37.581Z,3.78
2023-04-23T06:52:04.668Z,5.55
2023-04-23T06:54:32.029Z,4.00
2023-04-23T06:56:59.067Z,4.78
2023-04-23T06:59:26.410Z,3.53
2023-04-23T07:01:55.532Z,4.03
2023-04-23T07:04:22.926Z,5.75
2023-04-23T07:06:49.921Z,3.70
2023-04-23T07:09:17.267Z,4.00
2023-04-23T07:11:44.329Z,3.70
2023-04-23T07:14:11.761Z,3.55
2023-04-23T07:16:38.847Z,3.40
2023-04-23T07:19:06.206Z,3.67
2023-04-23T07:21:33.510Z,3.40
2023-04-23T07:24:03.523Z,3.63
2023-04-23T07:26:30.544Z,2.90
2023-04-23T07:28:58.197Z,3.03
2023-04-23T07:31:25.284Z,3.10
2023-04-23T07:33:52.848Z,2.90
2023-04-23T07:36:19.923Z,3.20
2023-04-23T07:38:47.306Z,3.05
2023-04-23T07:41:14.538Z,2.97
2023-04-23T07:43:42.813Z,2.92
2023-04-23T07:46:10.198Z,3.33
2023-04-23T07:48:37.602Z,3.13
2023-04-23T07:51:04.840Z,2.95
2023-04-23T07:53:32.191Z,3.40
2023-04-23T07:55:59.192Z,3.22
2023-04-23T07:58:26.551Z,3.28
2023-04-23T08:00:53.706Z,3.43
2023-04-23T08:03:22.443Z,3.38
2023-04-23T08:05:49.799Z,3.13
2023-04-23T08:08:17.311Z,3.65
2023-04-23T08:10:44.457Z,4.07
2023-04-23T08:13:11.888Z,3.93
2023-04-23T08:15:38.895Z,3.22
2023-04-23T08:18:06.578Z,3.70
2023-04-23T08:20:34.698Z,3.88
2023-04-23T08:23:02.185Z,3.30
2023-04-23T08:25:29.189Z,2.80
2023-04-23T08:27:56.696Z,3.22
2023-04-23T08:30:23.780Z,3.47
2023-04-23T08:32:54.093Z,3.00
2023-04-23T08:35:21.937Z,3.45
2023-04-23T08:37:49.289Z,3.00
2023-04-23T08:40:17.214Z,3.00
2023-04-23T08:42:57.364Z,3.25
2023-04-23T08:45:25.073Z,3.00
2023-04-23T08:47:52.544Z,3.42
2023-04-23T08:50:20.267Z,3.03
2023-04-23T08:52:52.800Z,3.30
2023-04-23T08:55:21.657Z,3.03
2023-04-23T08:57:49.833Z,3.92
2023-04-23T09:00:19.300Z,3.10
2023-04-23T09:02:48.234Z,3.10
2023-04-23T09:05:15.962Z,3.00
2023-04-23T09:07:43.472Z,3.75
2023-04-23T09:10:13.389Z,2.80
2023-04-23T09:12:43.628Z,3.30
2023-04-23T09:15:11.476Z,3.10
2023-04-23T09:17:44.570Z,3.00
2023-04-23T09:20:12.922Z,3.95
2023-04-23T09:22:47.648Z,3.33
2023-04-23T09:25:20.799Z,3.83
2023-04-23T09:27:49.603Z,3.10
2023-04-23T09:30:17.617Z,4.30
2023-04-23T09:32:46.795Z,3.53
2023-04-23T09:35:16.391Z,3.85
2023-04-23T09:37:49.129Z,3.45
2023-04-23T09:40:17.861Z,3.13
2023-04-23T09:42:56.070Z,4.13
2023-04-23T09:45:25.274Z,3.97
2023-04-23T09:47:57.715Z,3.03
2023-04-23T09:50:35.021Z,4.90
2023-04-23T09:53:02.945Z,4.20
2023-04-23T09:55:35.699Z,3.88
2023-04-23T09:58:04.816Z,3.90
2023-04-23T10:00:37.364Z,4.10
2023-04-23T10:03:07.286Z,3.75
2023-04-23T10:08:14.698Z,3.97
2023-04-23T10:13:12.206Z,4.93
2023-04-23T10:15:39.474Z,4.97
2023-04-23T10:18:08.133Z,4.77
2023-04-23T10:20:36.116Z,4.60
2023-04-23T10:23:04.784Z,4.45
2023-04-23T10:25:32.668Z,4.65
2023-04-23T10:28:01.120Z,4.05
2023-04-23T10:30:28.695Z,3.70
2023-04-23T10:32:57.533Z,5.80
2023-04-23T10:35:24.634Z,4.90
2023-04-23T10:37:52.257Z,3.65
2023-04-23T10:40:24.819Z,5.30
2023-04-23T10:42:52.314Z,4.20
2023-04-23T10:45:25.717Z,3.40
2023-04-23T10:47:57.638Z,4.47
2023-04-23T10:50:27.643Z,3.63
2023-04-23T10:52:57.364Z,4.35
2023-04-23T10:55:27.176Z,4.03
2023-04-23T10:58:03.450Z,3.75
2023-04-23T11:00:51.221Z,4.32
2023-04-23T11:03:48.755Z,6.10
2023-04-23T11:06:20.946Z,4.95
2023-04-23T11:08:54.070Z,4.77
2023-04-23T11:11:40.025Z,5.80
2023-04-23T11:14:16.452Z,3.53
2023-04-23T11:16:43.590Z,5.47
2023-04-23T11:19:18.314Z,5.07
2023-04-23T11:22:01.790Z,5.30
2023-04-23T11:24:31.107Z,5.28
2023-04-23T11:26:59.490Z,4.07
2023-04-23T11:29:28.421Z,5.55
2023-04-23T11:34:27.189Z,4.00
2023-04-23T11:36:57.633Z,4.43
2023-04-23T11:39:24.953Z,4.18
2023-04-23T11:41:52.613Z,5.45
2023-04-23T11:44:21.492Z,4.65
2023-04-23T11:46:50.074Z,3.93
2023-04-23T11:49:19.309Z,4.57
2023-04-23T11:51:48.171Z,3.80
2023-04-23T11:54:15.409Z,4.85
2023-04-23T11:56:42.673Z,4.43
2023-04-23T11:59:10.017Z,5.13
2023-04-23T12:01:48.285Z,3.55
2023-04-23T12:04:27.057Z,3.95
2023-04-23T12:06:57.354Z,3.20
2023-04-23T12:09:27.106Z,3.60
2023-04-23T12:11:54.169Z,4.40
2023-04-23T12:14:29.236Z,4.80
2023-04-23T12:16:57.238Z,3.85
2023-04-23T12:19:29.355Z,4.45
2023-04-23T12:21:58.907Z,3.83
2023-04-23T12:24:31.529Z,4.73
2023-04-23T12:27:01.081Z,4.20
2023-04-23T12:29:31.287Z,5.00
2023-04-23T12:32:00.464Z,5.18
2023-04-23T12:34:27.716Z,3.88
2023-04-23T12:36:56.068Z,4.03
2023-04-23T12:39:29.518Z,4.30
2023-04-23T12:42:03.205Z,3.85
2023-04-23T12:44:39.969Z,3.70
2023-04-23T12:47:15.339Z,4.57
2023-04-23T12:49:43.560Z,4.00
2023-04-23T12:52:13.368Z,5.07
2023-04-23T12:54:41.378Z,4.72
2023-04-23T12:57:12.304Z,4.05
2023-04-23T12:59:39.654Z,3.90
2023-04-23T13:02:07.421Z,4.33
2023-04-23T13:04:36.480Z,4.32
2023-04-23T13:07:04.365Z,3.85
2023-04-23T13:09:31.631Z,3.92
2023-04-23T13:12:00.800Z,3.65
2023-04-23T13:14:28.676Z,4.37
2023-04-23T13:16:56.122Z,3.97
2023-04-23T13:19:23.308Z,4.35
2023-04-23T13:21:50.186Z,3.75
2023-04-23T13:24:17.361Z,4.18
2023-04-23T13:26:44.332Z,6.60
2023-04-23T13:29:11.676Z,5.28
2023-04-23T13:31:38.614Z,3.80
2023-04-23T13:34:05.849Z,4.05
2023-04-23T13:36:33.229Z,4.07
2023-04-23T13:39:00.746Z,4.43
2023-04-23T13:41:27.650Z,3.95
2023-04-23T13:43:54.849Z,3.85
2023-04-23T13:46:21.904Z,6.65
2023-04-23T13:48:49.147Z,3.92
2023-04-23T13:51:33.238Z,3.50
2023-04-23T13:54:02.360Z,5.65
2023-04-23T13:56:30.825Z,5.70
2023-04-23T14:01:32.464Z,3.45
2023-04-23T14:03:59.712Z,4.90
2023-04-23T14:06:27.714Z,5.57
2023-04-23T14:08:55.003Z,3.78
2023-04-23T14:11:22.921Z,5.70
2023-04-23T14:13:50.183Z,4.40
2023-04-23T14:16:17.701Z,10.37
2023-04-23T14:18:45.911Z,5.55
2023-04-23T14:21:15.663Z,3.67
2023-04-23T14:23:49.860Z,4.20
2023-04-23T14:29:51.296Z,4.63
2023-04-23T14:32:18.257Z,5.78
2023-04-23T14:34:45.626Z,4.65
2023-04-23T14:37:12.932Z,5.18
2023-04-23T14:39:41.399Z,4.43
2023-04-23T14:42:08.677Z,4.00
2023-04-23T14:44:36.079Z,4.82
2023-04-23T14:47:03.052Z,4.32
2023-04-23T14:49:30.380Z,6.65
2023-04-23T14:51:58.301Z,4.25
2023-04-23T14:54:25.789Z,4.17
2023-04-23T14:56:52.825Z,5.00
2023-04-23T14:59:21.517Z,4.72
2023-04-23T15:01:48.627Z,5.10
2023-04-23T15:04:16.365Z,5.63
2023-04-23T15:06:43.287Z,4.23
2023-04-23T15:09:10.482Z,4.55
2023-04-23T15:11:38.961Z,4.03
2023-04-23T15:14:23.396Z,6.05
2023-04-23T15:16:50.592Z,4.55
2023-04-23T15:19:18.663Z,4.40
2023-04-23T15:21:46.632Z,5.55
2023-04-23T15:24:14.594Z,5.45
2023-04-23T15:26:41.588Z,5.72
2023-04-23T15:29:10.259Z,4.57
2023-04-23T15:31:38.137Z,4.30
2023-04-23T15:34:09.303Z,4.32
2023-04-23T15:36:38.078Z,6.72
2023-04-23T15:39:07.751Z,4.65
2023-04-23T15:41:39.530Z,4.50
2023-04-23T15:44:11.866Z,9.87
2023-04-23T15:46:39.026Z,3.97
2023-04-23T15:49:06.361Z,5.68
2023-04-23T15:51:33.465Z,4.65
2023-04-23T15:54:02.346Z,3.85
2023-04-23T15:56:29.334Z,5.63
2023-04-23T15:58:57.055Z,3.20
2023-04-23T16:01:26.945Z,4.68
2023-04-23T16:04:09.625Z,3.75
2023-04-23T16:06:38.479Z,4.10
2023-04-23T16:09:09.007Z,4.30
2023-04-23T16:11:36.844Z,3.85
2023-04-23T16:14:05.851Z,5.07
2023-04-23T16:16:32.926Z,4.53
2023-04-23T16:19:00.358Z,5.57
2023-04-23T16:21:28.197Z,4.20
2023-04-23T16:23:55.405Z,4.93
2023-04-23T16:26:22.435Z,3.92
2023-04-23T16:28:52.335Z,4.20
2023-04-23T16:31:32.335Z,6.40
2023-04-23T16:33:59.687Z,3.83
2023-04-23T16:36:26.705Z,4.28
2023-04-23T16:38:53.952Z,4.00
2023-04-23T16:41:20.955Z,4.93
2023-04-23T16:43:48.196Z,3.08
2023-04-23T16:46:18.193Z,4.40
2023-04-23T16:48:46.010Z,5.78
2023-04-23T16:51:13.175Z,6.88
2023-04-23T16:53:40.436Z,5.07
2023-04-23T16:56:07.457Z,6.43
2023-04-23T16:58:36.242Z,4.17
2023-04-23T17:01:03.204Z,5.40
2023-04-23T17:03:30.616Z,4.38
2023-04-23T17:06:10.427Z,4.95
2023-04-23T17:08:38.992Z,3.90
2023-04-23T17:11:07.325Z,4.20
2023-04-23T17:13:35.160Z,4.75
2023-04-23T17:16:02.945Z,6.75
2023-04-23T17:18:30.216Z,4.50
2023-04-23T17:20:57.123Z,3.78
2023-04-23T17:23:24.363Z,3.77
2023-04-23T17:25:51.849Z,3.20
2023-04-23T17:28:20.488Z,6.32
2023-04-23T17:30:50.577Z,6.18
2023-04-23T17:33:18.235Z,9.77
2023-04-23T17:35:47.027Z,5.63
2023-04-23T17:38:14.371Z,5.40
2023-04-23T17:40:41.364Z,5.10
2023-04-23T17:43:08.559Z,6.03
2023-04-23T17:45:35.594Z,4.05
2023-04-23T17:48:03.149Z,4.47
2023-04-23T17:50:30.181Z,4.35
2023-04-23T17:52:57.479Z,5.03
2023-04-23T17:55:24.476Z,4.43
2023-04-23T17:57:51.947Z,4.30
2023-04-23T18:00:19.301Z,5.17
2023-04-23T18:02:46.827Z,4.75
2023-04-23T18:05:15.333Z,4.07
2023-04-23T18:07:43.956Z,7.10
2023-04-23T18:10:12.659Z,4.40
2023-04-23T18:12:40.141Z,6.67
2023-04-23T18:15:10.867Z,18.15
2023-04-23T18:17:38.779Z,14.10
2023-04-23T18:20:06.828Z,14.07
2023-04-23T18:22:35.296Z,14.52
2023-04-23T18:25:02.219Z,9.17
2023-04-23T18:27:33.411Z,8.73
2023-04-23T18:30:01.131Z,6.22
2023-04-23T18:32:34.516Z,4.53
2023-04-23T18:35:02.622Z,5.72
2023-04-23T18:37:37.846Z,5.47
2023-04-23T18:40:06.397Z,4.50
2023-04-23T18:42:34.286Z,6.07
2023-04-23T18:45:04.152Z,4.82
2023-04-23T18:47:37.004Z,8.27
2023-04-23T18:50:43.280Z,7.40
2023-04-23T18:53:10.520Z,5.13
2023-04-23T18:55:37.403Z,11.15
2023-04-23T18:58:04.837Z,5.05
2023-04-23T19:00:31.814Z,3.80
2023-04-23T19:02:59.434Z,3.00
2023-04-23T19:05:26.901Z,3.15
2023-04-23T19:07:54.710Z,2.92
2023-04-23T19:10:21.893Z,4.47
2023-04-23T19:12:49.984Z,2.75
2023-04-23T19:15:18.156Z,7.23
2023-04-23T19:17:45.816Z,5.40
2023-04-23T19:20:15.653Z,2.80
2023-04-23T19:22:42.997Z,8.25
2023-04-23T19:25:10.370Z,3.10
2023-04-23T19:27:37.617Z,4.00
2023-04-23T19:30:06.247Z,4.35
2023-04-23T19:32:36.094Z,3.45
2023-04-23T19:35:04.899Z,5.45
2023-04-23T19:37:32.898Z,6.72
2023-04-23T19:39:59.807Z,5.27
2023-04-23T19:42:29.614Z,5.25
2023-04-23T19:44:56.496Z,5.10
2023-04-23T19:47:23.790Z,7.18
2023-04-23T19:49:51.618Z,6.55
2023-04-23T19:52:25.612Z,5.23
2023-04-23T19:54:52.650Z,6.55
2023-04-23T19:57:20.049Z,7.82
2023-04-23T19:59:46.952Z,4.35
2023-04-23T20:02:15.464Z,4.78
2023-04-23T20:04:43.280Z,3.80
2023-04-23T20:07:10.740Z,6.63
2023-04-23T20:09:37.865Z,8.88
2023-04-23T20:12:05.538Z,5.15
2023-04-23T20:14:32.477Z,4.43
2023-04-23T20:16:59.849Z,5.27
2023-04-23T20:19:26.925Z,6.63
2023-04-23T20:21:54.177Z,6.85
2023-04-23T20:24:24.095Z,2.75
2023-04-23T20:26:51.489Z,3.47
2023-04-23T20:29:18.490Z,3.80
2023-04-23T20:31:49.488Z,3.35
2023-04-23T20:34:17.170Z,4.07
2023-04-23T20:36:47.342Z,5.25
2023-04-23T20:39:14.658Z,3.80
2023-04-23T20:41:42.038Z,4.40
2023-04-23T20:44:09.233Z,4.38
2023-04-23T20:46:37.098Z,4.25
2023-04-23T20:49:04.534Z,4.75
2023-04-23T20:51:35.238Z,3.83
2023-04-23T20:54:02.871Z,3.37
2023-04-23T20:56:30.836Z,4.65
2023-04-23T20:58:58.377Z,3.35
2023-04-23T21:01:26.174Z,3.13
2023-04-23T21:03:54.107Z,5.05
2023-04-23T21:06:22.432Z,5.00
2023-04-23T21:08:49.463Z,3.28
2023-04-23T21:11:19.044Z,3.72
2023-04-23T21:13:46.549Z,3.88
2023-04-23T21:16:14.122Z,3.90
2023-04-23T21:18:41.307Z,2.80
2023-04-23T21:21:08.562Z,4.30
2023-04-23T21:23:36.107Z,7.78
2023-04-23T21:26:03.811Z,6.55
2023-04-23T21:28:31.745Z,4.70
2023-04-23T21:31:07.958Z,4.10
2023-04-23T21:33:34.916Z,4.72
2023-04-23T21:36:02.125Z,3.00
2023-04-23T21:38:29.024Z,4.78
2023-04-23T21:40:56.376Z,3.85
2023-04-23T21:43:24.593Z,2.90
2023-04-23T21:45:52.239Z,3.20
2023-04-23T21:48:19.133Z,3.17
2023-04-23T21:50:47.087Z,4.05
2023-04-23T21:53:14.677Z,3.20
2023-04-23T21:55:42.008Z,2.80
2023-04-23T21:58:17.364Z,3.58
2023-04-23T22:00:46.073Z,3.47
2023-04-23T22:03:18.652Z,3.03
2023-04-23T22:05:57.982Z,3.88
2023-04-23T22:08:25.216Z,2.90
2023-04-23T22:10:52.577Z,2.92
2023-04-23T22:13:21.477Z,4.10
2023-04-23T22:15:49.375Z,2.60
2023-04-23T22:18:16.406Z,2.63
2023-04-23T22:20:48.470Z,4.33
2023-04-23T22:23:15.721Z,4.97
2023-04-23T22:25:43.177Z,2.67
2023-04-23T22:28:10.049Z,3.15
2023-04-23T22:30:37.346Z,4.95
2023-04-23T22:33:05.371Z,3.73
2023-04-23T22:35:32.851Z,4.38
2023-04-23T22:38:00.333Z,2.80
2023-04-23T22:40:27.626Z,5.47
2023-04-23T22:42:54.500Z,2.58
2023-04-23T22:45:21.740Z,5.87
2023-04-23T22:47:48.751Z,5.45
2023-04-23T22:50:16.040Z,4.07
2023-04-23T22:52:43.840Z,3.72
2023-04-23T22:55:12.183Z,3.45
2023-04-23T22:57:39.340Z,3.20
2023-04-23T23:00:11.575Z,4.07
2023-04-23T23:02:38.636Z,3.10
2023-04-23T23:05:06.831Z,5.28
2023-04-23T23:07:33.765Z,3.72
2023-04-23T23:10:01.078Z,2.83
2023-04-23T23:12:28.049Z,3.30
2023-04-23T23:14:55.498Z,3.50
2023-04-23T23:17:22.378Z,3.88
2023-04-23T23:19:49.627Z,4.20
2023-04-23T23:22:16.608Z,3.90
2023-04-23T23:24:43.915Z,5.93
2023-04-23T23:27:11.099Z,4.22
2023-04-23T23:29:38.328Z,3.63
2023-04-23T23:32:05.388Z,3.28
2023-04-23T23:34:32.740Z,3.13
2023-04-23T23:36:59.716Z,3.55
2023-04-23T23:39:27.618Z,4.07
2023-04-23T23:41:54.518Z,2.90
2023-04-23T23:44:21.813Z,3.90
2023-04-23T23:46:48.813Z,3.50
2023-04-23T23:49:16.272Z,3.50
2023-04-23T23:51:43.177Z,3.95
2023-04-23T23:54:10.420Z,3.10
2023-04-23T23:56:37.338Z,3.50
2023-04-23T23:59:04.745Z,3.00
